sensor_id;sensor_type;location;lat;lon;timestamp;pressure;altitude;pressure_sealevel;temperature;humidity
25510;BME280;13413;52.336;21.200;2023-02-15T00:12:38;102245.15;;;7.04;63.66
25510;BME280;13413;52.336;21.200;2023-02-15T00:15:32;102247.70;;;7.10;63.44
25510;BME280;13413;52.336;21.200;2023-02-15T00:18:26;102246.59;;;7.03;63.45
25510;BME280;13413;52.336;21.200;2023-02-15T00:21:20;102242.86;;;7.04;63.53
25510;BME280;13413;52.336;21.200;2023-02-15T00:24:16;102244.16;;;7.06;63.66
25510;BME280;13413;52.336;21.200;2023-02-15T00:27:10;102242.84;;;7.07;63.62
25510;BME280;13413;52.336;21.200;2023-02-15T00:30:05;102239.65;;;7.07;63.64
25510;BME280;13413;52.336;21.200;2023-02-15T00:32:59;102237.21;;;7.02;63.60
25510;BME280;13413;52.336;21.200;2023-02-15T00:35:58;102237.48;;;6.98;63.75
25510;BME280;13413;52.336;21.200;2023-02-15T00:38:52;102232.11;;;6.99;63.70
25510;BME280;13413;52.336;21.200;2023-02-15T00:41:46;102233.80;;;6.97;63.69
25510;BME280;13413;52.336;21.200;2023-02-15T00:44:40;102232.13;;;6.96;63.81
25510;BME280;13413;52.336;21.200;2023-02-15T00:47:33;102228.93;;;6.97;63.80
25510;BME280;13413;52.336;21.200;2023-02-15T00:50:27;102223.48;;;6.94;63.77
25510;BME280;13413;52.336;21.200;2023-02-15T00:53:21;102226.17;;;6.88;63.88
25510;BME280;13413;52.336;21.200;2023-02-15T00:56:14;102220.67;;;6.87;64.12
25510;BME280;13413;52.336;21.200;2023-02-15T00:59:09;102214.88;;;6.69;64.52
25510;BME280;13413;52.336;21.200;2023-02-15T01:02:03;102211.92;;;6.66;64.61
25510;BME280;13413;52.336;21.200;2023-02-15T01:04:57;102204.70;;;6.74;64.47
25510;BME280;13413;52.336;21.200;2023-02-15T01:07:51;102208.27;;;6.81;64.33
25510;BME280;13413;52.336;21.200;2023-02-15T01:10:45;102208.36;;;6.82;64.33
25510;BME280;13413;52.336;21.200;2023-02-15T01:13:42;102206.46;;;6.86;64.31
25510;BME280;13413;52.336;21.200;2023-02-15T01:19:31;102206.80;;;6.91;64.21
25510;BME280;13413;52.336;21.200;2023-02-15T01:22:26;102203.38;;;6.90;64.31
25510;BME280;13413;52.336;21.200;2023-02-15T01:25:21;102204.68;;;6.89;64.25
25510;BME280;13413;52.336;21.200;2023-02-15T01:28:15;102202.95;;;6.88;64.18
25510;BME280;13413;52.336;21.200;2023-02-15T01:31:11;102198.25;;;6.83;64.45
25510;BME280;13413;52.336;21.200;2023-02-15T01:34:06;102194.28;;;6.74;64.52
25510;BME280;13413;52.336;21.200;2023-02-15T01:37:00;102194.98;;;6.72;64.60
25510;BME280;13413;52.336;21.200;2023-02-15T01:39:54;102193.70;;;6.78;64.63
25510;BME280;13413;52.336;21.200;2023-02-15T01:42:51;102193.40;;;6.79;64.57
25510;BME280;13413;52.336;21.200;2023-02-15T01:45:47;102194.65;;;6.79;64.60
25510;BME280;13413;52.336;21.200;2023-02-15T01:48:46;102193.27;;;6.79;64.70
25510;BME280;13413;52.336;21.200;2023-02-15T01:51:42;102197.42;;;6.82;64.68
25510;BME280;13413;52.336;21.200;2023-02-15T01:54:40;102197.97;;;6.84;64.81
25510;BME280;13413;52.336;21.200;2023-02-15T01:57:35;102196.46;;;6.91;64.67
25510;BME280;13413;52.336;21.200;2023-02-15T02:00:29;102194.98;;;6.94;64.54
25510;BME280;13413;52.336;21.200;2023-02-15T02:03:30;102193.72;;;6.95;64.56
25510;BME280;13413;52.336;21.200;2023-02-15T02:06:28;102190.67;;;6.95;64.53
25510;BME280;13413;52.336;21.200;2023-02-15T02:09:23;102182.88;;;6.94;64.48
25510;BME280;13413;52.336;21.200;2023-02-15T02:12:18;102183.03;;;6.96;64.51
25510;BME280;13413;52.336;21.200;2023-02-15T02:15:14;102183.53;;;7.00;64.49
25510;BME280;13413;52.336;21.200;2023-02-15T02:18:18;102181.88;;;6.98;64.43
25510;BME280;13413;52.336;21.200;2023-02-15T02:24:46;102173.91;;;6.86;64.74
25510;BME280;13413;52.336;21.200;2023-02-15T02:33:40;102169.17;;;7.01;64.58
25510;BME280;13413;52.336;21.200;2023-02-15T02:36:40;102167.88;;;7.00;64.61
25510;BME280;13413;52.336;21.200;2023-02-15T02:39:45;102166.67;;;6.99;64.50
25510;BME280;13413;52.336;21.200;2023-02-15T02:42:44;102164.48;;;7.10;64.36
25510;BME280;13413;52.336;21.200;2023-02-15T02:45:45;102164.34;;;7.15;64.30
25510;BME280;13413;52.336;21.200;2023-02-15T02:48:41;102160.02;;;7.16;64.24
25510;BME280;13413;52.336;21.200;2023-02-15T02:51:36;102157.37;;;7.19;64.28
25510;BME280;13413;52.336;21.200;2023-02-15T02:54:31;102157.17;;;7.21;64.31
25510;BME280;13413;52.336;21.200;2023-02-15T02:57:28;102149.67;;;7.23;64.28
25510;BME280;13413;52.336;21.200;2023-02-15T03:00:25;102151.59;;;7.21;64.20
25510;BME280;13413;52.336;21.200;2023-02-15T03:03:23;102147.59;;;7.20;64.10
25510;BME280;13413;52.336;21.200;2023-02-15T03:06:21;102148.82;;;7.18;64.23
25510;BME280;13413;52.336;21.200;2023-02-15T03:09:22;102153.39;;;7.20;64.32
25510;BME280;13413;52.336;21.200;2023-02-15T03:12:20;102151.06;;;7.16;64.26
25510;BME280;13413;52.336;21.200;2023-02-15T03:15:18;102153.24;;;7.15;64.31
25510;BME280;13413;52.336;21.200;2023-02-15T03:18:14;102152.81;;;7.11;64.37
25510;BME280;13413;52.336;21.200;2023-02-15T03:21:11;102151.05;;;7.09;64.42
25510;BME280;13413;52.336;21.200;2023-02-15T03:24:09;102147.63;;;7.12;64.47
25510;BME280;13413;52.336;21.200;2023-02-15T03:27:09;102147.41;;;7.13;64.39
25510;BME280;13413;52.336;21.200;2023-02-15T03:30:07;102145.17;;;7.10;64.35
25510;BME280;13413;52.336;21.200;2023-02-15T03:33:01;102145.56;;;7.09;64.49
25510;BME280;13413;52.336;21.200;2023-02-15T03:36:04;102147.11;;;7.14;64.47
25510;BME280;13413;52.336;21.200;2023-02-15T03:39:05;102149.41;;;7.17;64.43
25510;BME280;13413;52.336;21.200;2023-02-15T03:42:08;102147.98;;;7.12;64.37
25510;BME280;13413;52.336;21.200;2023-02-15T03:45:22;102153.96;;;7.12;64.61
25510;BME280;13413;52.336;21.200;2023-02-15T03:48:17;102151.59;;;7.18;64.48
25510;BME280;13413;52.336;21.200;2023-02-15T03:51:17;102151.98;;;7.10;64.36
25510;BME280;13413;52.336;21.200;2023-02-15T03:54:15;102146.89;;;7.13;64.45
25510;BME280;13413;52.336;21.200;2023-02-15T03:57:13;102145.94;;;7.21;64.51
25510;BME280;13413;52.336;21.200;2023-02-15T04:00:14;102138.37;;;7.26;64.38
25510;BME280;13413;52.336;21.200;2023-02-15T04:03:26;102132.69;;;7.26;64.36
25510;BME280;13413;52.336;21.200;2023-02-15T04:06:24;102134.05;;;7.22;64.42
25510;BME280;13413;52.336;21.200;2023-02-15T04:09:18;102133.86;;;7.23;64.41
25510;BME280;13413;52.336;21.200;2023-02-15T04:12:12;102134.98;;;7.19;64.37
25510;BME280;13413;52.336;21.200;2023-02-15T04:15:11;102122.73;;;7.23;64.41
25510;BME280;13413;52.336;21.200;2023-02-15T04:18:05;102125.95;;;7.23;64.41
25510;BME280;13413;52.336;21.200;2023-02-15T04:20:59;102126.98;;;7.18;64.41
25510;BME280;13413;52.336;21.200;2023-02-15T04:23:53;102127.42;;;7.12;64.52
25510;BME280;13413;52.336;21.200;2023-02-15T04:26:47;102124.69;;;7.08;64.62
25510;BME280;13413;52.336;21.200;2023-02-15T04:29:41;102127.32;;;7.11;64.73
25510;BME280;13413;52.336;21.200;2023-02-15T04:32:36;102128.54;;;7.16;64.72
25510;BME280;13413;52.336;21.200;2023-02-15T04:35:29;102126.04;;;7.19;64.60
25510;BME280;13413;52.336;21.200;2023-02-15T04:38:23;102128.44;;;7.15;64.51
25510;BME280;13413;52.336;21.200;2023-02-15T04:41:17;102123.60;;;7.11;64.63
25510;BME280;13413;52.336;21.200;2023-02-15T04:44:12;102119.11;;;7.10;64.61
25510;BME280;13413;52.336;21.200;2023-02-15T04:56:00;102129.31;;;7.22;64.62
25510;BME280;13413;52.336;21.200;2023-02-15T04:58:53;102131.39;;;7.18;64.60
25510;BME280;13413;52.336;21.200;2023-02-15T05:01:47;102129.83;;;7.18;64.72
25510;BME280;13413;52.336;21.200;2023-02-15T05:04:41;102130.23;;;7.14;64.66
25510;BME280;13413;52.336;21.200;2023-02-15T05:07:35;102136.35;;;7.17;64.82
25510;BME280;13413;52.336;21.200;2023-02-15T05:10:29;102133.55;;;7.17;64.81
25510;BME280;13413;52.336;21.200;2023-02-15T05:13:23;102138.27;;;7.13;64.80
25510;BME280;13413;52.336;21.200;2023-02-15T05:16:17;102137.66;;;7.11;64.85
25510;BME280;13413;52.336;21.200;2023-02-15T05:19:11;102139.08;;;7.11;64.89
25510;BME280;13413;52.336;21.200;2023-02-15T05:22:05;102139.30;;;7.13;64.88
25510;BME280;13413;52.336;21.200;2023-02-15T05:24:59;102140.06;;;7.15;64.87
25510;BME280;13413;52.336;21.200;2023-02-15T05:27:53;102141.64;;;7.22;64.85
25510;BME280;13413;52.336;21.200;2023-02-15T05:30:47;102145.50;;;7.22;64.78
25510;BME280;13413;52.336;21.200;2023-02-15T05:33:41;102146.15;;;7.20;64.81
25510;BME280;13413;52.336;21.200;2023-02-15T05:36:35;102146.29;;;7.23;64.84
25510;BME280;13413;52.336;21.200;2023-02-15T05:39:29;102147.55;;;7.18;64.85
25510;BME280;13413;52.336;21.200;2023-02-15T05:45:16;102141.17;;;7.14;64.94
25510;BME280;13413;52.336;21.200;2023-02-15T05:48:10;102142.21;;;7.14;64.96
25510;BME280;13413;52.336;21.200;2023-02-15T05:51:05;102145.30;;;7.15;64.88
25510;BME280;13413;52.336;21.200;2023-02-15T05:54:00;102146.17;;;7.15;64.94
25510;BME280;13413;52.336;21.200;2023-02-15T05:56:54;102143.80;;;7.17;64.97
25510;BME280;13413;52.336;21.200;2023-02-15T05:59:48;102147.75;;;7.15;64.92
25510;BME280;13413;52.336;21.200;2023-02-15T06:02:42;102150.86;;;7.12;65.00
25510;BME280;13413;52.336;21.200;2023-02-15T06:05:36;102154.64;;;7.10;65.04
25510;BME280;13413;52.336;21.200;2023-02-15T06:08:43;102155.61;;;7.11;65.11
25510;BME280;13413;52.336;21.200;2023-02-15T06:11:37;102155.52;;;7.15;64.98
25510;BME280;13413;52.336;21.200;2023-02-15T06:14:34;102158.35;;;7.12;64.94
25510;BME280;13413;52.336;21.200;2023-02-15T06:17:28;102164.66;;;7.10;65.05
25510;BME280;13413;52.336;21.200;2023-02-15T06:20:22;102162.04;;;7.17;64.98
25510;BME280;13413;52.336;21.200;2023-02-15T06:23:16;102158.86;;;7.20;64.97
25510;BME280;13413;52.336;21.200;2023-02-15T06:26:10;102161.45;;;7.26;64.91
25510;BME280;13413;52.336;21.200;2023-02-15T06:29:03;102160.57;;;7.30;64.92
25510;BME280;13413;52.336;21.200;2023-02-15T06:31:57;102157.60;;;7.25;64.90
25510;BME280;13413;52.336;21.200;2023-02-15T06:34:51;102163.25;;;7.22;64.87
25510;BME280;13413;52.336;21.200;2023-02-15T06:37:46;102166.35;;;7.23;64.84
25510;BME280;13413;52.336;21.200;2023-02-15T06:40:40;102160.11;;;7.24;64.78
25510;BME280;13413;52.336;21.200;2023-02-15T06:46:27;102158.21;;;7.19;64.87
25510;BME280;13413;52.336;21.200;2023-02-15T06:49:21;102157.59;;;7.23;64.92
25510;BME280;13413;52.336;21.200;2023-02-15T06:52:15;102151.35;;;7.24;64.96
25510;BME280;13413;52.336;21.200;2023-02-15T06:55:09;102148.34;;;7.24;64.79
25510;BME280;13413;52.336;21.200;2023-02-15T06:58:04;102151.59;;;7.23;64.88
25510;BME280;13413;52.336;21.200;2023-02-15T07:00:57;102152.08;;;7.21;64.87
25510;BME280;13413;52.336;21.200;2023-02-15T07:03:52;102150.83;;;7.19;65.01
25510;BME280;13413;52.336;21.200;2023-02-15T07:06:44;102154.11;;;7.18;65.02
25510;BME280;13413;52.336;21.200;2023-02-15T07:15:13;102147.12;;;7.22;65.05
25510;BME280;13413;52.336;21.200;2023-02-15T07:18:07;102144.36;;;7.21;65.16
25510;BME280;13413;52.336;21.200;2023-02-15T07:21:01;102145.78;;;7.26;65.16
25510;BME280;13413;52.336;21.200;2023-02-15T07:23:57;102147.95;;;7.20;65.11
25510;BME280;13413;52.336;21.200;2023-02-15T07:26:50;102145.85;;;7.15;65.19
25510;BME280;13413;52.336;21.200;2023-02-15T07:29:48;102143.96;;;7.12;65.19
25510;BME280;13413;52.336;21.200;2023-02-15T07:35:35;102146.32;;;7.01;65.20
25510;BME280;13413;52.336;21.200;2023-02-15T07:38:31;102146.63;;;7.04;65.18
25510;BME280;13413;52.336;21.200;2023-02-15T07:41:25;102147.42;;;7.08;65.30
25510;BME280;13413;52.336;21.200;2023-02-15T07:44:19;102142.19;;;7.10;65.23
25510;BME280;13413;52.336;21.200;2023-02-15T07:47:12;102140.90;;;7.08;65.34
25510;BME280;13413;52.336;21.200;2023-02-15T07:50:08;102141.40;;;7.06;65.34
25510;BME280;13413;52.336;21.200;2023-02-15T07:53:02;102135.98;;;7.08;65.40
25510;BME280;13413;52.336;21.200;2023-02-15T07:55:57;102139.22;;;7.14;65.36
25510;BME280;13413;52.336;21.200;2023-02-15T07:58:52;102133.30;;;7.23;65.34
25510;BME280;13413;52.336;21.200;2023-02-15T08:01:46;102132.05;;;7.28;65.14
25510;BME280;13413;52.336;21.200;2023-02-15T08:04:40;102126.88;;;7.26;65.22
25510;BME280;13413;52.336;21.200;2023-02-15T08:07:34;102124.58;;;7.22;65.25
25510;BME280;13413;52.336;21.200;2023-02-15T08:10:28;102125.19;;;7.23;65.27
25510;BME280;13413;52.336;21.200;2023-02-15T08:13:22;102122.52;;;7.24;65.24
25510;BME280;13413;52.336;21.200;2023-02-15T08:16:16;102118.73;;;7.27;65.22
25510;BME280;13413;52.336;21.200;2023-02-15T08:19:12;102119.34;;;7.31;65.16
25510;BME280;13413;52.336;21.200;2023-02-15T08:22:10;102116.19;;;7.33;65.20
25510;BME280;13413;52.336;21.200;2023-02-15T08:25:05;102116.63;;;7.34;65.19
25510;BME280;13413;52.336;21.200;2023-02-15T08:27:59;102111.30;;;7.40;65.13
25510;BME280;13413;52.336;21.200;2023-02-15T08:33:47;102109.52;;;7.35;65.22
25510;BME280;13413;52.336;21.200;2023-02-15T08:36:42;102109.36;;;7.28;65.14
25510;BME280;13413;52.336;21.200;2023-02-15T08:39:36;102111.52;;;7.20;65.31
25510;BME280;13413;52.336;21.200;2023-02-15T08:42:30;102110.58;;;7.14;65.47
25510;BME280;13413;52.336;21.200;2023-02-15T08:45:26;102109.59;;;7.08;65.54
25510;BME280;13413;52.336;21.200;2023-02-15T08:48:20;102101.52;;;7.03;65.44
25510;BME280;13413;52.336;21.200;2023-02-15T08:51:16;102102.01;;;7.03;65.45
25510;BME280;13413;52.336;21.200;2023-02-15T08:54:12;102099.43;;;7.05;65.65
25510;BME280;13413;52.336;21.200;2023-02-15T08:57:06;102098.85;;;7.01;65.59
25510;BME280;13413;52.336;21.200;2023-02-15T09:00:00;102098.96;;;6.99;65.53
25510;BME280;13413;52.336;21.200;2023-02-15T09:02:54;102096.80;;;7.05;65.60
25510;BME280;13413;52.336;21.200;2023-02-15T09:05:48;102093.55;;;7.06;65.44
25510;BME280;13413;52.336;21.200;2023-02-15T09:08:42;102090.90;;;7.13;65.44
25510;BME280;13413;52.336;21.200;2023-02-15T09:11:38;102082.85;;;7.22;65.50
25510;BME280;13413;52.336;21.200;2023-02-15T09:14:32;102083.95;;;7.29;65.39
25510;BME280;13413;52.336;21.200;2023-02-15T09:17:26;102085.40;;;7.28;65.26
25510;BME280;13413;52.336;21.200;2023-02-15T09:20:20;102079.66;;;7.23;65.35
25510;BME280;13413;52.336;21.200;2023-02-15T09:23:14;102080.46;;;7.19;65.50
25510;BME280;13413;52.336;21.200;2023-02-15T09:32:14;102081.03;;;7.25;65.46
25510;BME280;13413;52.336;21.200;2023-02-15T09:35:09;102080.01;;;7.25;65.42
25510;BME280;13413;52.336;21.200;2023-02-15T09:38:03;102079.80;;;7.32;65.29
25510;BME280;13413;52.336;21.200;2023-02-15T09:44:09;102079.74;;;7.28;65.41
25510;BME280;13413;52.336;21.200;2023-02-15T09:47:20;102081.63;;;7.36;65.46
25510;BME280;13413;52.336;21.200;2023-02-15T09:50:27;102077.23;;;7.36;65.54
25510;BME280;13413;52.336;21.200;2023-02-15T09:53:44;102072.54;;;7.28;65.43
25510;BME280;13413;52.336;21.200;2023-02-15T09:56:47;102075.00;;;7.28;65.63
25510;BME280;13413;52.336;21.200;2023-02-15T09:59:52;102073.92;;;7.27;65.55
25510;BME280;13413;52.336;21.200;2023-02-15T10:03:09;102071.48;;;7.19;65.63
25510;BME280;13413;52.336;21.200;2023-02-15T10:06:20;102065.59;;;7.15;65.84
25510;BME280;13413;52.336;21.200;2023-02-15T10:12:49;102064.10;;;7.02;66.12
25510;BME280;13413;52.336;21.200;2023-02-15T10:15:56;102057.77;;;6.94;66.31
25510;BME280;13413;52.336;21.200;2023-02-15T10:18:58;102057.64;;;7.02;66.30
25510;BME280;13413;52.336;21.200;2023-02-15T10:22:08;102053.61;;;7.06;66.14
25510;BME280;13413;52.336;21.200;2023-02-15T10:25:23;102046.73;;;7.06;66.08
25510;BME280;13413;52.336;21.200;2023-02-15T10:28:19;102045.12;;;7.02;66.25
25510;BME280;13413;52.336;21.200;2023-02-15T10:31:26;102045.42;;;7.00;66.20
25510;BME280;13413;52.336;21.200;2023-02-15T10:34:23;102045.13;;;6.99;66.27
25510;BME280;13413;52.336;21.200;2023-02-15T10:37:41;102044.60;;;6.97;66.18
25510;BME280;13413;52.336;21.200;2023-02-15T10:40:49;102042.64;;;7.00;66.19
25510;BME280;13413;52.336;21.200;2023-02-15T10:44:11;102041.13;;;6.89;66.34
25510;BME280;13413;52.336;21.200;2023-02-15T10:47:22;102041.85;;;6.91;66.28
25510;BME280;13413;52.336;21.200;2023-02-15T10:50:32;102036.02;;;6.94;66.01
25510;BME280;13413;52.336;21.200;2023-02-15T10:53:46;102034.52;;;6.83;66.24
25510;BME280;13413;52.336;21.200;2023-02-15T10:56:52;102029.96;;;6.69;66.37
25510;BME280;13413;52.336;21.200;2023-02-15T11:00:03;102022.23;;;6.69;66.26
25510;BME280;13413;52.336;21.200;2023-02-15T11:03:11;102020.13;;;6.76;66.26
25510;BME280;13413;52.336;21.200;2023-02-15T11:06:13;102015.33;;;6.84;66.25
25510;BME280;13413;52.336;21.200;2023-02-15T11:09:12;102013.99;;;6.92;66.17
25510;BME280;13413;52.336;21.200;2023-02-15T11:12:10;102015.64;;;6.94;66.12
25510;BME280;13413;52.336;21.200;2023-02-15T11:15:18;102011.09;;;6.91;66.09
25510;BME280;13413;52.336;21.200;2023-02-15T11:18:19;102009.09;;;6.89;66.12
25510;BME280;13413;52.336;21.200;2023-02-15T11:21:19;102005.02;;;6.83;66.12
25510;BME280;13413;52.336;21.200;2023-02-15T11:24:16;102009.09;;;6.82;66.03
25510;BME280;13413;52.336;21.200;2023-02-15T11:27:19;102002.39;;;6.83;66.04
25510;BME280;13413;52.336;21.200;2023-02-15T11:30:15;102005.65;;;6.72;66.14
25510;BME280;13413;52.336;21.200;2023-02-15T11:33:16;102003.92;;;6.64;66.23
25510;BME280;13413;52.336;21.200;2023-02-15T11:36:14;102007.66;;;6.61;66.22
25510;BME280;13413;52.336;21.200;2023-02-15T11:39:12;102010.62;;;6.61;66.11
25510;BME280;13413;52.336;21.200;2023-02-15T11:42:13;102007.58;;;6.62;66.06
25510;BME280;13413;52.336;21.200;2023-02-15T11:45:07;102007.44;;;6.64;65.91
25510;BME280;13413;52.336;21.200;2023-02-15T11:56:27;101995.35;;;6.61;66.18
25510;BME280;13413;52.336;21.200;2023-02-15T11:59:27;101998.26;;;6.65;66.16
25510;BME280;13413;52.336;21.200;2023-02-15T12:02:24;101994.96;;;6.62;66.31
25510;BME280;13413;52.336;21.200;2023-02-15T12:05:21;101993.91;;;6.69;66.11
25510;BME280;13413;52.336;21.200;2023-02-15T12:08:19;101992.91;;;6.66;66.18
25510;BME280;13413;52.336;21.200;2023-02-15T12:11:17;101990.55;;;6.74;66.14
25510;BME280;13413;52.336;21.200;2023-02-15T12:14:14;101993.78;;;6.61;66.18
25510;BME280;13413;52.336;21.200;2023-02-15T12:17:14;101988.23;;;6.57;66.20
25510;BME280;13413;52.336;21.200;2023-02-15T12:20:24;101986.20;;;6.59;66.06
25510;BME280;13413;52.336;21.200;2023-02-15T12:23:19;101981.55;;;6.60;66.08
25510;BME280;13413;52.336;21.200;2023-02-15T12:26:14;101982.47;;;6.59;66.19
25510;BME280;13413;52.336;21.200;2023-02-15T12:29:17;101980.36;;;6.47;66.42
25510;BME280;13413;52.336;21.200;2023-02-15T12:32:22;101967.94;;;6.56;66.32
25510;BME280;13413;52.336;21.200;2023-02-15T12:35:28;101961.10;;;6.61;66.23
25510;BME280;13413;52.336;21.200;2023-02-15T12:38:25;101954.75;;;6.51;66.59
25510;BME280;13413;52.336;21.200;2023-02-15T12:41:25;101951.11;;;6.58;66.35
25510;BME280;13413;52.336;21.200;2023-02-15T12:44:21;101952.91;;;6.55;66.60
25510;BME280;13413;52.336;21.200;2023-02-15T12:47:18;101947.36;;;6.59;66.34
25510;BME280;13413;52.336;21.200;2023-02-15T12:50:23;101942.86;;;6.65;66.21
25510;BME280;13413;52.336;21.200;2023-02-15T12:53:19;101940.13;;;6.66;66.35
25510;BME280;13413;52.336;21.200;2023-02-15T12:56:13;101937.41;;;6.65;66.55
25510;BME280;13413;52.336;21.200;2023-02-15T12:59:20;101935.80;;;6.72;66.32
25510;BME280;13413;52.336;21.200;2023-02-15T13:02:22;101934.21;;;6.72;66.33
25510;BME280;13413;52.336;21.200;2023-02-15T13:05:21;101926.29;;;6.68;66.33
25510;BME280;13413;52.336;21.200;2023-02-15T13:08:19;101923.91;;;6.69;66.34
25510;BME280;13413;52.336;21.200;2023-02-15T13:11:14;101926.91;;;6.60;66.61
25510;BME280;13413;52.336;21.200;2023-02-15T13:14:19;101924.33;;;6.59;66.66
25510;BME280;13413;52.336;21.200;2023-02-15T13:17:15;101921.37;;;6.59;66.68
25510;BME280;13413;52.336;21.200;2023-02-15T13:20:20;101916.52;;;6.47;67.00
25510;BME280;13413;52.336;21.200;2023-02-15T13:23:24;101920.32;;;6.53;66.73
25510;BME280;13413;52.336;21.200;2023-02-15T13:26:21;101915.58;;;6.56;66.65
25510;BME280;13413;52.336;21.200;2023-02-15T13:29:21;101910.69;;;6.63;66.53
25510;BME280;13413;52.336;21.200;2023-02-15T13:32:26;101910.63;;;6.61;66.61
25510;BME280;13413;52.336;21.200;2023-02-15T13:35:22;101899.88;;;6.62;66.68
25510;BME280;13413;52.336;21.200;2023-02-15T13:38:37;101896.14;;;6.57;66.85
25510;BME280;13413;52.336;21.200;2023-02-15T13:41:45;101893.64;;;6.58;66.69
25510;BME280;13413;52.336;21.200;2023-02-15T13:44:58;101896.92;;;6.59;66.73
25510;BME280;13413;52.336;21.200;2023-02-15T13:48:03;101896.75;;;6.58;66.88
25510;BME280;13413;52.336;21.200;2023-02-15T13:51:09;101898.56;;;6.67;66.78
25510;BME280;13413;52.336;21.200;2023-02-15T13:54:31;101900.89;;;6.67;66.74
25510;BME280;13413;52.336;21.200;2023-02-15T13:57:43;101895.90;;;6.66;66.75
25510;BME280;13413;52.336;21.200;2023-02-15T14:00:47;101895.83;;;6.59;66.97
25510;BME280;13413;52.336;21.200;2023-02-15T14:04:09;101892.75;;;6.51;67.28
25510;BME280;13413;52.336;21.200;2023-02-15T14:07:10;101887.01;;;6.35;67.66
25510;BME280;13413;52.336;21.200;2023-02-15T14:16:19;101878.45;;;6.61;67.02
25510;BME280;13413;52.336;21.200;2023-02-15T14:19:19;101877.22;;;6.66;67.06
25510;BME280;13413;52.336;21.200;2023-02-15T14:22:23;101874.83;;;6.65;66.98
25510;BME280;13413;52.336;21.200;2023-02-15T14:25:27;101872.16;;;6.65;66.96
25510;BME280;13413;52.336;21.200;2023-02-15T14:28:28;101872.48;;;6.56;67.15
25510;BME280;13413;52.336;21.200;2023-02-15T14:31:29;101870.30;;;6.62;66.99
25510;BME280;13413;52.336;21.200;2023-02-15T14:34:27;101871.31;;;6.63;66.90
25510;BME280;13413;52.336;21.200;2023-02-15T14:37:33;101872.05;;;6.62;66.90
25510;BME280;13413;52.336;21.200;2023-02-15T14:40:37;101870.67;;;6.64;66.91
25510;BME280;13413;52.336;21.200;2023-02-15T14:43:48;101870.44;;;6.60;67.02
25510;BME280;13413;52.336;21.200;2023-02-15T14:46:48;101868.35;;;6.65;66.95
25510;BME280;13413;52.336;21.200;2023-02-15T14:49:44;101868.97;;;6.46;67.19
25510;BME280;13413;52.336;21.200;2023-02-15T14:56:26;101864.67;;;6.40;67.31
25510;BME280;13413;52.336;21.200;2023-02-15T14:59:21;101862.63;;;6.39;67.31
25510;BME280;13413;52.336;21.200;2023-02-15T15:02:18;101863.28;;;6.43;67.29
25510;BME280;13413;52.336;21.200;2023-02-15T15:05:20;101857.99;;;6.40;67.28
25510;BME280;13413;52.336;21.200;2023-02-15T15:08:28;101850.55;;;6.46;67.11
25510;BME280;13413;52.336;21.200;2023-02-15T15:11:41;101852.81;;;6.44;67.29
25510;BME280;13413;52.336;21.200;2023-02-15T15:14:40;101853.55;;;6.44;67.29
25510;BME280;13413;52.336;21.200;2023-02-15T15:17:56;101846.00;;;6.46;67.30
25510;BME280;13413;52.336;21.200;2023-02-15T15:20:51;101846.32;;;6.48;67.18
25510;BME280;13413;52.336;21.200;2023-02-15T15:23:45;101843.70;;;6.51;67.15
25510;BME280;13413;52.336;21.200;2023-02-15T15:26:39;101840.64;;;6.57;67.12
25510;BME280;13413;52.336;21.200;2023-02-15T15:29:42;101836.66;;;6.46;67.28
25510;BME280;13413;52.336;21.200;2023-02-15T15:32:36;101833.77;;;6.45;67.27
25510;BME280;13413;52.336;21.200;2023-02-15T15:35:36;101824.66;;;6.47;67.14
25510;BME280;13413;52.336;21.200;2023-02-15T15:38:39;101826.77;;;6.44;67.12
25510;BME280;13413;52.336;21.200;2023-02-15T15:41:45;101818.79;;;6.43;67.30
25510;BME280;13413;52.336;21.200;2023-02-15T15:45:08;101817.52;;;6.53;67.10
25510;BME280;13413;52.336;21.200;2023-02-15T15:48:38;101815.98;;;6.60;66.99
25510;BME280;13413;52.336;21.200;2023-02-15T15:51:34;101814.74;;;6.62;67.03
25510;BME280;13413;52.336;21.200;2023-02-15T15:54:32;101816.92;;;6.45;67.26
25510;BME280;13413;52.336;21.200;2023-02-15T15:57:29;101818.21;;;6.48;67.30
25510;BME280;13413;52.336;21.200;2023-02-15T16:00:33;101816.89;;;6.45;67.38
25510;BME280;13413;52.336;21.200;2023-02-15T16:03:29;101813.92;;;6.40;67.37
25510;BME280;13413;52.336;21.200;2023-02-15T16:06:29;101810.77;;;6.49;67.11
25510;BME280;13413;52.336;21.200;2023-02-15T16:09:25;101812.48;;;6.52;67.07
25510;BME280;13413;52.336;21.200;2023-02-15T16:12:20;101807.25;;;6.45;67.23
25510;BME280;13413;52.336;21.200;2023-02-15T16:15:17;101802.31;;;6.40;67.34
25510;BME280;13413;52.336;21.200;2023-02-15T16:18:15;101803.09;;;6.37;67.34
25510;BME280;13413;52.336;21.200;2023-02-15T16:21:18;101800.34;;;6.34;67.39
25510;BME280;13413;52.336;21.200;2023-02-15T16:24:19;101807.66;;;6.39;67.23
25510;BME280;13413;52.336;21.200;2023-02-15T16:32:17;101801.86;;;6.35;67.37
25510;BME280;13413;52.336;21.200;2023-02-15T16:35:30;101802.29;;;6.45;67.15
25510;BME280;13413;52.336;21.200;2023-02-15T16:41:45;101791.98;;;6.42;67.07
25510;BME280;13413;52.336;21.200;2023-02-15T16:44:41;101794.81;;;6.28;67.42
25510;BME280;13413;52.336;21.200;2023-02-15T16:47:38;101792.61;;;6.36;67.34
25510;BME280;13413;52.336;21.200;2023-02-15T16:50:36;101790.55;;;6.38;67.26
25510;BME280;13413;52.336;21.200;2023-02-15T16:53:30;101787.45;;;6.39;67.36
25510;BME280;13413;52.336;21.200;2023-02-15T16:56:27;101790.50;;;6.38;67.21
25510;BME280;13413;52.336;21.200;2023-02-15T16:59:30;101785.31;;;6.42;67.16
25510;BME280;13413;52.336;21.200;2023-02-15T17:02:29;101779.14;;;6.40;67.34